createdAt,value
2018-07-03T00:02:30.239Z,41.10
2018-07-03T00:07:33.959Z,41.10
2018-07-03T00:12:38.073Z,41.00
2018-07-03T00:22:44.988Z,41.00
2018-07-03T00:32:52.085Z,40.80
2018-07-03T00:37:55.717Z,41.00
2018-07-03T00:42:59.321Z,40.90
2018-07-03T00:48:02.984Z,41.10
2018-07-03T00:53:06.773Z,41.10
2018-07-03T00:58:10.592Z,41.10
2018-07-03T01:03:14.163Z,41.10
2018-07-03T01:08:17.859Z,41.10
2018-07-03T01:18:25.053Z,41.10
2018-07-03T01:23:28.817Z,41.10
2018-07-03T01:28:32.569Z,41.20
2018-07-03T01:33:36.180Z,41.20
2018-07-03T01:43:43.125Z,41.20
2018-07-03T01:48:46.701Z,41.20
2018-07-03T01:53:50.332Z,41.20
2018-07-03T01:58:54.422Z,40.70
2018-07-03T02:03:58.170Z,41.30
2018-07-03T02:09:01.844Z,41.20
2018-07-03T02:14:05.531Z,41.20
2018-07-03T02:24:12.438Z,41.90
2018-07-03T02:29:16.047Z,41.30
2018-07-03T02:39:23.060Z,41.30
2018-07-03T02:44:26.931Z,41.30
2018-07-03T02:54:34.089Z,41.40
2018-07-03T02:59:37.756Z,41.40
2018-07-03T03:04:41.385Z,41.40
2018-07-03T03:09:44.992Z,41.40
2018-07-03T03:14:48.615Z,41.40
2018-07-03T03:19:52.351Z,41.50
2018-07-03T03:24:55.952Z,41.50
2018-07-03T03:35:03.089Z,41.60
2018-07-03T03:40:07.591Z,42.10
2018-07-03T03:45:11.196Z,41.60
2018-07-03T03:50:14.828Z,41.70
2018-07-03T03:55:18.548Z,41.90
2018-07-03T04:00:22.260Z,41.90
2018-07-03T04:05:25.838Z,42.30
2018-07-03T04:10:29.432Z,42.40
2018-07-03T04:20:36.604Z,42.50
2018-07-03T04:25:40.248Z,42.30
2018-07-03T04:30:43.860Z,42.30
2018-07-03T04:35:47.446Z,42.20
2018-07-03T04:40:51.249Z,42.10
2018-07-03T04:45:55.228Z,41.90
2018-07-03T04:50:59.352Z,41.80
2018-07-03T04:56:02.948Z,41.70
2018-07-03T05:01:07.352Z,41.70
2018-07-03T05:16:17.672Z,41.60
2018-07-03T05:21:21.457Z,41.60
2018-07-03T05:26:25.057Z,41.60
2018-07-03T05:31:28.733Z,41.70
2018-07-03T05:36:32.499Z,41.70
2018-07-03T05:41:36.553Z,41.70
2018-07-03T05:46:40.428Z,41.70
2018-07-03T05:51:44.057Z,41.80
2018-07-03T05:56:47.628Z,42.20
2018-07-03T06:01:51.829Z,41.90
2018-07-03T06:06:55.475Z,41.90
2018-07-03T06:17:02.664Z,41.90
2018-07-03T06:22:06.383Z,42.00
2018-07-03T06:27:10.046Z,42.00
2018-07-03T06:32:13.852Z,42.00
2018-07-03T06:37:17.487Z,39.00
2018-07-03T06:42:21.135Z,37.60
2018-07-03T06:52:28.013Z,38.10
2018-07-03T06:57:31.655Z,38.50
2018-07-03T07:02:35.258Z,38.50
2018-07-03T07:07:38.872Z,37.60
2018-07-03T07:12:42.613Z,38.20
2018-07-03T07:17:46.247Z,38.80
2018-07-03T07:27:53.252Z,39.30
2018-07-03T07:32:56.917Z,39.60
2018-07-03T07:38:00.744Z,39.60
2018-07-03T07:43:04.629Z,39.70
2018-07-03T07:48:08.272Z,39.70
2018-07-03T07:53:11.862Z,39.80
2018-07-03T07:58:15.552Z,39.70
2018-07-03T08:03:19.193Z,39.70
2018-07-03T08:08:22.868Z,39.70
2018-07-03T08:13:26.534Z,39.80
2018-07-03T08:23:33.754Z,40.10
2018-07-03T08:28:37.612Z,40.00
2018-07-03T08:38:44.847Z,40.20
2018-07-03T08:48:51.808Z,37.60
2018-07-03T08:53:55.416Z,37.00
2018-07-03T08:58:59.285Z,36.80
2018-07-03T09:04:02.914Z,36.10
2018-07-03T09:09:08.926Z,35.80
2018-07-03T09:24:19.635Z,32.30
2018-07-03T09:29:23.248Z,33.70
2018-07-03T09:34:26.866Z,32.90
2018-07-03T09:39:30.907Z,32.10
2018-07-03T09:44:34.518Z,32.50
2018-07-03T09:49:38.228Z,32.80
2018-07-03T09:54:41.939Z,33.80
2018-07-03T10:04:48.950Z,33.80
2018-07-03T10:09:52.692Z,33.80
2018-07-03T10:14:56.267Z,32.90
2018-07-03T10:19:59.940Z,33.20
2018-07-03T10:30:07.172Z,35.60
2018-07-03T10:35:10.768Z,35.10
2018-07-03T10:40:14.394Z,35.60
2018-07-03T10:45:18.007Z,35.80
2018-07-03T10:50:21.711Z,36.30
2018-07-03T10:55:25.321Z,36.10
2018-07-03T11:00:29.088Z,36.50
2018-07-03T11:05:32.755Z,37.00
2018-07-03T11:10:36.501Z,37.00
2018-07-03T11:15:40.166Z,36.80
2018-07-03T11:20:43.788Z,36.40
2018-07-03T11:25:47.429Z,36.80
2018-07-03T11:35:54.547Z,36.90
2018-07-03T11:40:58.191Z,36.70
2018-07-03T11:46:01.817Z,36.70
2018-07-03T11:51:05.592Z,36.80
2018-07-03T11:56:09.480Z,36.60
2018-07-03T12:01:13.132Z,36.90
2018-07-03T12:06:16.796Z,37.30
2018-07-03T12:11:20.518Z,37.20
2018-07-03T12:16:24.246Z,37.50
2018-07-03T12:21:28.666Z,37.20
2018-07-03T12:26:32.312Z,36.90
2018-07-03T12:31:35.913Z,36.60
2018-07-03T12:36:39.545Z,37.20
2018-07-03T12:41:43.280Z,37.40
2018-07-03T12:46:46.996Z,37.40
2018-07-03T12:51:50.626Z,37.60
2018-07-03T12:56:54.253Z,37.70
2018-07-03T13:01:58.048Z,37.40
2018-07-03T13:07:01.683Z,37.30
2018-07-03T13:12:05.357Z,37.50
2018-07-03T13:17:09.308Z,37.30
2018-07-03T13:22:12.884Z,37.70
2018-07-03T13:27:16.665Z,38.20
2018-07-03T13:32:20.293Z,38.60
2018-07-03T13:37:24.015Z,38.70
2018-07-03T13:42:27.812Z,38.50
2018-07-03T13:47:31.424Z,39.10
2018-07-03T13:52:34.994Z,39.50
2018-07-03T14:02:42.058Z,40.50
2018-07-03T14:07:45.835Z,40.70
2018-07-03T14:12:49.693Z,40.60
2018-07-03T14:17:53.340Z,40.50
2018-07-03T14:22:57.350Z,39.60
2018-07-03T14:28:01.205Z,39.60
2018-07-03T14:33:04.792Z,38.60
2018-07-03T14:38:08.879Z,39.00
2018-07-03T14:43:12.676Z,39.60
2018-07-03T14:48:16.316Z,38.80
2018-07-03T14:58:23.513Z,39.00
2018-07-03T15:03:27.279Z,38.30
2018-07-03T15:13:34.588Z,38.60
2018-07-03T15:18:43.624Z,38.80
2018-07-03T15:23:47.298Z,39.20
2018-07-03T15:28:51.202Z,39.10
2018-07-03T15:33:55.264Z,39.00
2018-07-03T15:38:58.857Z,38.00
2018-07-03T15:44:13.921Z,37.10
2018-07-03T15:49:18.279Z,37.40
2018-07-03T15:54:21.947Z,37.60
2018-07-03T15:59:26.024Z,37.70
2018-07-03T16:05:06.184Z,37.60
2018-07-03T16:10:10.024Z,38.70
2018-07-03T16:15:13.751Z,39.00
2018-07-03T16:20:23.079Z,38.30
2018-07-03T16:30:30.884Z,39.30
2018-07-03T16:40:27.125Z,39.60
2018-07-03T17:00:43.598Z,40.50
2018-07-03T17:10:51.177Z,39.20
2018-07-03T17:15:55.463Z,40.20
2018-07-03T17:20:59.401Z,39.80
2018-07-03T17:26:03.089Z,39.80
2018-07-03T17:31:07.177Z,39.80
2018-07-03T17:36:11.668Z,39.80
2018-07-03T17:41:26.881Z,39.90
2018-07-03T17:46:30.477Z,40.00
2018-07-03T17:51:34.119Z,40.20
2018-07-03T18:01:41.392Z,42.10
2018-07-03T18:06:45.157Z,42.50
2018-07-03T18:11:48.742Z,41.10
2018-07-03T18:16:52.438Z,40.90
2018-07-03T18:26:59.560Z,40.00
2018-07-03T18:37:06.568Z,40.40
2018-07-03T18:42:10.660Z,41.00
2018-07-03T18:47:14.562Z,40.20
2018-07-03T18:57:21.782Z,40.20
2018-07-03T19:02:25.573Z,40.30
2018-07-03T19:07:29.148Z,39.70
2018-07-03T19:12:33.124Z,38.70
2018-07-03T19:17:36.745Z,38.10
2018-07-03T19:22:40.501Z,37.50
2018-07-03T19:27:44.264Z,38.60
2018-07-03T19:32:48.136Z,38.90
2018-07-03T19:53:38.177Z,37.60
2018-07-03T19:58:41.865Z,38.00
2018-07-03T20:03:46.200Z,38.40
2018-07-03T20:08:49.976Z,39.00
2018-07-03T20:13:53.692Z,38.40
2018-07-03T20:18:58.095Z,39.00
2018-07-03T20:24:02.110Z,38.70
2018-07-03T20:29:05.972Z,38.50
2018-07-03T20:34:10.170Z,38.50
2018-07-03T20:39:14.137Z,38.60
2018-07-03T20:44:17.937Z,38.50
2018-07-03T20:49:21.900Z,38.30
2018-07-03T20:54:25.478Z,38.40
2018-07-03T20:59:30.106Z,38.50
2018-07-03T21:04:34.129Z,38.70
2018-07-03T21:09:38.045Z,38.90
2018-07-03T21:14:42.373Z,38.80
2018-07-03T21:19:46.622Z,38.80
2018-07-03T21:24:50.884Z,38.80
2018-07-03T21:29:55.332Z,38.80
2018-07-03T21:34:59.183Z,38.80
2018-07-03T21:40:02.846Z,39.10
2018-07-03T21:45:07.769Z,39.30
2018-07-03T21:50:11.513Z,39.40
2018-07-03T21:55:15.126Z,39.40
2018-07-03T22:00:23.446Z,39.20
2018-07-03T22:05:27.289Z,39.20
2018-07-03T22:10:31.887Z,39.20
2018-07-03T22:15:35.579Z,39.10
2018-07-03T22:20:39.478Z,38.90
2018-07-03T22:25:44.250Z,38.90
2018-07-03T22:30:47.858Z,39.10
2018-07-03T22:35:51.735Z,39.10
2018-07-03T22:40:55.630Z,39.30
2018-07-03T22:46:00.169Z,39.20
2018-07-03T22:51:04.019Z,39.10
2018-07-03T22:56:07.665Z,39.20
2018-07-03T23:01:11.305Z,39.50
2018-07-03T23:06:14.957Z,39.50
2018-07-03T23:11:18.620Z,39.90
2018-07-03T23:16:23.233Z,39.80
2018-07-03T23:21:26.771Z,39.70
2018-07-03T23:26:30.353Z,39.50
2018-07-03T23:36:37.443Z,39.10
2018-07-03T23:41:43.205Z,39.10
2018-07-03T23:46:58.057Z,39.00
2018-07-03T23:52:12.788Z,39.30
2018-07-03T23:57:27.873Z,39.20
